ウシュアイア空港の過去48時間の天気

ウシュアイア空港 (Ushuaia Aerodrome)

現在時刻: 1/23 00:28 -03 (1/23 03:28 UTC) 以下の時間は現地時間です。

過去48時間のMETAR気象情報
時間 風向 風速(m/s) 視程 気温(℃) 湿度(%) 気圧(hPa) 天気現象
23 00:00 北東 3 10km以上 9 81 1004
22 23:00 北東 4 10km以上 9 76 1004
22 22:00 北東 4 10km以上 10 71 1005
22 21:00 北東 3 10km以上 10 71 1005
22 20:00 静穏 0 10km以上 12 58 1006
22 19:00 静穏 0 10km以上 12 50 1007
22 18:00 静穏 0 10km以上 12 44 1007
22 17:00 静穏 0 10km以上 12 54 1007
SAWH 230300Z 05006KT 9999 BKN048 SCT100 09/06 Q1004
SAWH 230200Z 05007KT 9999 BKN048 SCT100 09/05 Q1004
SAWH 230100Z 05008KT 9999 BKN045 SCT080 10/05 Q1005
SAWH 230000Z 05005KT 9999 SCT045 SCT080 10/05 Q1005
SAWH 222300Z 00000KT 9999 SCT045 BKN080 12/04 Q1006
SAWH 222200Z 00000KT 9999 BKN045 BKN080 12/02 Q1007
SAWH 222100Z 00000KT 9999 SCT040 BKN100 12/00 Q1007
SAWH 222000Z 00000KT 9999 SCT040 BKN100 12/03 Q1007